TMR weather

Aguenar – Hadj Bey Akhamok Airport
Tamanrasset, Tamanghasset Province, Algeria

Public forecast

Using degrees Celsius for public forecast. Weather courtesy of forecast.io.

Current aviation weather report (METAR) for Aguenar – Hadj Bey Akhamok Airport

Retrieved 2020/06/04 03:30 UTC (10 minutes ago):

DAAT 040330Z 03008KT 8000 NSC 27/M09 Q1016

Aviation forecast (TAF) for Aguenar – Hadj Bey Akhamok Airport

Retrieved 2020-06-04 00:33 UTC (3 hours ago):

TAF DAAT 032300Z 0400/0424 06012KT 6000 FEW046 PROB40 0400/0410 3000 HZ PROB30 TEMPO 0400/0404 FEW040TCU BECMG 0412/0414 35012KT TEMPO 0414/0418 FEW040TCU FEW046CB